Terminal Aerodrome Forecast
Issued by NWS Topeka, KS

Home | Current Version | Previous Version | Text Only | Print | Product List | Glossary Off
Versions: 1 2 3 4 5 6 7 8 9 10 11 12 13 14

066
FTUS43 KTOP 050525
TAFTOP
TAF
KTOP 050525Z 0506/0606 33003KT P6SM SKC
     FM051700 17008KT P6SM BKN100
     FM060200 27004KT P6SM BKN070=

USA.gov is the U.S. government's official web portal to all federal, state and local government web resources and services.